sensor_id;sensor_type;location;lat;lon;timestamp;pressure;altitude;pressure_sealevel;temperature;humidity
24154;BME280;12312;53.362;-1.518;2022-12-17T00:02:06;99348.25;;;-0.94;100.00
24154;BME280;12312;53.362;-1.518;2022-12-17T00:04:51;99348.06;;;-0.86;100.00
24154;BME280;12312;53.362;-1.518;2022-12-17T00:07:35;99343.59;;;-0.81;100.00
24154;BME280;12312;53.362;-1.518;2022-12-17T00:10:19;99334.72;;;-0.76;100.00
24154;BME280;12312;53.362;-1.518;2022-12-17T00:13:03;99350.41;;;-0.76;100.00
24154;BME280;12312;53.362;-1.518;2022-12-17T00:15:51;99346.81;;;-0.72;100.00
24154;BME280;12312;53.362;-1.518;2022-12-17T00:18:36;99326.75;;;-0.71;100.00
24154;BME280;12312;53.362;-1.518;2022-12-17T00:21:20;99330.47;;;-0.80;100.00
24154;BME280;12312;53.362;-1.518;2022-12-17T00:24:05;99328.59;;;-0.73;100.00
24154;BME280;12312;53.362;-1.518;2022-12-17T00:26:49;99327.38;;;-0.95;100.00
24154;BME280;12312;53.362;-1.518;2022-12-17T00:29:34;99329.84;;;-0.89;100.00
24154;BME280;12312;53.362;-1.518;2022-12-17T00:32:20;99333.88;;;-0.76;100.00
24154;BME280;12312;53.362;-1.518;2022-12-17T00:35:05;99329.53;;;-0.77;100.00
24154;BME280;12312;53.362;-1.518;2022-12-17T00:37:49;99333.88;;;-0.76;100.00
24154;BME280;12312;53.362;-1.518;2022-12-17T00:40:35;99327.16;;;-0.86;100.00
24154;BME280;12312;53.362;-1.518;2022-12-17T00:43:22;99314.69;;;-0.75;100.00
24154;BME280;12312;53.362;-1.518;2022-12-17T00:46:08;99316.41;;;-0.74;100.00
24154;BME280;12312;53.362;-1.518;2022-12-17T00:48:51;99311.25;;;-0.77;100.00
24154;BME280;12312;53.362;-1.518;2022-12-17T00:51:36;99295.75;;;-0.83;100.00
24154;BME280;12312;53.362;-1.518;2022-12-17T00:54:21;99304.41;;;-0.81;100.00
24154;BME280;12312;53.362;-1.518;2022-12-17T00:57:06;99300.97;;;-0.83;100.00
24154;BME280;12312;53.362;-1.518;2022-12-17T00:59:51;99316.56;;;-0.80;100.00
24154;BME280;12312;53.362;-1.518;2022-12-17T01:02:36;99311.50;;;-0.86;100.00
24154;BME280;12312;53.362;-1.518;2022-12-17T01:05:20;99323.44;;;-0.76;100.00
24154;BME280;12312;53.362;-1.518;2022-12-17T01:08:11;99309.47;;;-0.75;100.00
24154;BME280;12312;53.362;-1.518;2022-12-17T01:11:05;99300.88;;;-0.80;100.00
24154;BME280;12312;53.362;-1.518;2022-12-17T01:13:50;99299.25;;;-0.84;100.00
24154;BME280;12312;53.362;-1.518;2022-12-17T01:16:35;99303.63;;;-0.85;100.00
24154;BME280;12312;53.362;-1.518;2022-12-17T01:19:20;99295.97;;;-0.92;100.00
24154;BME280;12312;53.362;-1.518;2022-12-17T01:22:04;99282.13;;;-0.94;100.00
24154;BME280;12312;53.362;-1.518;2022-12-17T01:24:49;99273.31;;;-0.90;100.00
24154;BME280;12312;53.362;-1.518;2022-12-17T01:27:33;99273.13;;;-0.84;100.00
24154;BME280;12312;53.362;-1.518;2022-12-17T01:30:17;99257.38;;;-0.81;100.00
24154;BME280;12312;53.362;-1.518;2022-12-17T01:33:03;99268.41;;;-0.70;100.00
24154;BME280;12312;53.362;-1.518;2022-12-17T01:35:53;99270.75;;;-0.60;100.00
24154;BME280;12312;53.362;-1.518;2022-12-17T01:38:37;99258.44;;;-0.56;100.00
24154;BME280;12312;53.362;-1.518;2022-12-17T01:41:22;99268.97;;;-0.59;100.00
24154;BME280;12312;53.362;-1.518;2022-12-17T01:47:21;99255.03;;;-0.58;100.00
24154;BME280;12312;53.362;-1.518;2022-12-17T01:50:06;99251.63;;;-0.62;100.00
24154;BME280;12312;53.362;-1.518;2022-12-17T01:52:54;99263.81;;;-0.62;100.00
24154;BME280;12312;53.362;-1.518;2022-12-17T01:55:40;99255.06;;;-0.60;100.00
24154;BME280;12312;53.362;-1.518;2022-12-17T01:58:25;99269.91;;;-0.62;100.00
24154;BME280;12312;53.362;-1.518;2022-12-17T02:01:10;99261.16;;;-0.61;100.00
24154;BME280;12312;53.362;-1.518;2022-12-17T02:04:01;99270.78;;;-0.61;100.00
24154;BME280;12312;53.362;-1.518;2022-12-17T02:07:07;99260.41;;;-0.64;100.00
24154;BME280;12312;53.362;-1.518;2022-12-17T02:10:07;99253.19;;;-0.56;100.00
24154;BME280;12312;53.362;-1.518;2022-12-17T02:13:05;99281.84;;;-0.53;100.00
24154;BME280;12312;53.362;-1.518;2022-12-17T02:15:59;99291.34;;;-0.49;100.00
24154;BME280;12312;53.362;-1.518;2022-12-17T02:18:57;99296.66;;;-0.52;100.00
24154;BME280;12312;53.362;-1.518;2022-12-17T02:22:04;99297.50;;;-0.52;100.00
24154;BME280;12312;53.362;-1.518;2022-12-17T02:24:59;99306.19;;;-0.51;100.00
24154;BME280;12312;53.362;-1.518;2022-12-17T02:27:46;99308.91;;;-0.54;100.00
24154;BME280;12312;53.362;-1.518;2022-12-17T02:30:31;99315.13;;;-0.58;100.00
24154;BME280;12312;53.362;-1.518;2022-12-17T02:33:16;99317.59;;;-0.54;100.00
24154;BME280;12312;53.362;-1.518;2022-12-17T02:36:03;99321.00;;;-0.50;100.00
24154;BME280;12312;53.362;-1.518;2022-12-17T02:38:48;99328.03;;;-0.52;100.00
24154;BME280;12312;53.362;-1.518;2022-12-17T02:41:54;99319.44;;;-0.57;100.00
24154;BME280;12312;53.362;-1.518;2022-12-17T02:44:41;99321.22;;;-0.59;100.00
24154;BME280;12312;53.362;-1.518;2022-12-17T02:47:27;99321.25;;;-0.61;100.00
24154;BME280;12312;53.362;-1.518;2022-12-17T02:50:14;99324.28;;;-0.76;100.00
24154;BME280;12312;53.362;-1.518;2022-12-17T02:52:59;99322.56;;;-0.77;100.00
24154;BME280;12312;53.362;-1.518;2022-12-17T02:55:45;99328.81;;;-0.82;100.00
24154;BME280;12312;53.362;-1.518;2022-12-17T02:58:28;99324.44;;;-0.82;100.00
24154;BME280;12312;53.362;-1.518;2022-12-17T03:01:13;99323.59;;;-0.82;100.00
24154;BME280;12312;53.362;-1.518;2022-12-17T03:03:57;99324.22;;;-0.74;100.00
24154;BME280;12312;53.362;-1.518;2022-12-17T03:06:42;99324.16;;;-0.71;100.00
24154;BME280;12312;53.362;-1.518;2022-12-17T03:09:26;99318.53;;;-0.88;100.00
24154;BME280;12312;53.362;-1.518;2022-12-17T03:12:10;99318.13;;;-1.07;100.00
24154;BME280;12312;53.362;-1.518;2022-12-17T03:14:54;99322.16;;;-0.95;100.00
24154;BME280;12312;53.362;-1.518;2022-12-17T03:17:38;99317.84;;;-0.96;100.00
24154;BME280;12312;53.362;-1.518;2022-12-17T03:20:22;99304.63;;;-0.90;100.00
24154;BME280;12312;53.362;-1.518;2022-12-17T03:23:09;99303.94;;;-0.97;100.00
24154;BME280;12312;53.362;-1.518;2022-12-17T03:25:57;99299.34;;;-0.87;100.00
24154;BME280;12312;53.362;-1.518;2022-12-17T03:28:42;99292.72;;;-1.00;100.00
24154;BME280;12312;53.362;-1.518;2022-12-17T03:31:26;99289.13;;;-0.96;100.00
24154;BME280;12312;53.362;-1.518;2022-12-17T03:34:10;99295.13;;;-0.93;100.00
24154;BME280;12312;53.362;-1.518;2022-12-17T03:36:54;99296.50;;;-0.78;100.00
24154;BME280;12312;53.362;-1.518;2022-12-17T03:39:38;99294.13;;;-0.55;100.00
24154;BME280;12312;53.362;-1.518;2022-12-17T03:42:25;99292.00;;;-0.73;100.00
24154;BME280;12312;53.362;-1.518;2022-12-17T03:45:09;99299.41;;;-0.57;100.00
24154;BME280;12312;53.362;-1.518;2022-12-17T03:50:49;99302.06;;;-0.58;100.00
24154;BME280;12312;53.362;-1.518;2022-12-17T03:53:33;99303.75;;;-0.57;100.00
24154;BME280;12312;53.362;-1.518;2022-12-17T03:56:18;99300.41;;;-0.62;100.00
24154;BME280;12312;53.362;-1.518;2022-12-17T03:59:02;99297.22;;;-0.73;100.00
24154;BME280;12312;53.362;-1.518;2022-12-17T04:01:47;99300.72;;;-0.74;100.00
24154;BME280;12312;53.362;-1.518;2022-12-17T04:04:32;99302.25;;;-0.66;100.00
24154;BME280;12312;53.362;-1.518;2022-12-17T04:07:16;99301.31;;;-0.63;100.00
24154;BME280;12312;53.362;-1.518;2022-12-17T04:10:01;99304.16;;;-0.72;100.00
24154;BME280;12312;53.362;-1.518;2022-12-17T04:12:45;99307.53;;;-0.67;100.00
24154;BME280;12312;53.362;-1.518;2022-12-17T04:15:29;99307.25;;;-0.90;100.00
24154;BME280;12312;53.362;-1.518;2022-12-17T04:18:14;99300.38;;;-0.93;100.00
24154;BME280;12312;53.362;-1.518;2022-12-17T04:21:05;99289.81;;;-0.88;100.00
24154;BME280;12312;53.362;-1.518;2022-12-17T04:23:50;99295.09;;;-0.91;100.00
24154;BME280;12312;53.362;-1.518;2022-12-17T04:26:34;99299.72;;;-1.02;100.00
24154;BME280;12312;53.362;-1.518;2022-12-17T04:29:18;99306.50;;;-0.95;100.00
24154;BME280;12312;53.362;-1.518;2022-12-17T04:32:03;99305.19;;;-0.78;100.00
24154;BME280;12312;53.362;-1.518;2022-12-17T04:34:47;99304.16;;;-0.72;100.00
24154;BME280;12312;53.362;-1.518;2022-12-17T04:37:31;99311.56;;;-0.56;100.00
24154;BME280;12312;53.362;-1.518;2022-12-17T04:40:16;99313.97;;;-0.48;100.00
24154;BME280;12312;53.362;-1.518;2022-12-17T04:43:07;99307.94;;;-0.52;100.00
24154;BME280;12312;53.362;-1.518;2022-12-17T04:45:52;99305.00;;;-0.38;100.00
24154;BME280;12312;53.362;-1.518;2022-12-17T04:48:36;99308.66;;;-0.45;100.00
24154;BME280;12312;53.362;-1.518;2022-12-17T04:51:20;99303.16;;;-0.06;100.00
24154;BME280;12312;53.362;-1.518;2022-12-17T04:54:05;99306.25;;;-0.22;100.00
24154;BME280;12312;53.362;-1.518;2022-12-17T04:56:51;99304.34;;;-0.16;100.00
24154;BME280;12312;53.362;-1.518;2022-12-17T04:59:35;99305.56;;;0.02;100.00
24154;BME280;12312;53.362;-1.518;2022-12-17T05:02:20;99292.19;;;-0.18;100.00
24154;BME280;12312;53.362;-1.518;2022-12-17T05:05:05;99297.03;;;-0.34;100.00
24154;BME280;12312;53.362;-1.518;2022-12-17T05:07:56;99292.78;;;-0.39;100.00
24154;BME280;12312;53.362;-1.518;2022-12-17T05:10:41;99284.13;;;-0.40;100.00
24154;BME280;12312;53.362;-1.518;2022-12-17T05:13:25;99290.72;;;-0.27;100.00
24154;BME280;12312;53.362;-1.518;2022-12-17T05:16:12;99285.94;;;-0.43;100.00
24154;BME280;12312;53.362;-1.518;2022-12-17T05:18:56;99278.16;;;-0.45;100.00
24154;BME280;12312;53.362;-1.518;2022-12-17T05:21:40;99289.78;;;-0.26;100.00
24154;BME280;12312;53.362;-1.518;2022-12-17T05:24:24;99289.34;;;-0.11;100.00
24154;BME280;12312;53.362;-1.518;2022-12-17T05:27:09;99289.13;;;-0.32;100.00
24154;BME280;12312;53.362;-1.518;2022-12-17T05:29:53;99285.69;;;-0.34;100.00
24154;BME280;12312;53.362;-1.518;2022-12-17T05:32:40;99272.75;;;-0.39;100.00
24154;BME280;12312;53.362;-1.518;2022-12-17T05:35:28;99272.72;;;-0.37;100.00
24154;BME280;12312;53.362;-1.518;2022-12-17T05:38:13;99272.00;;;-0.13;100.00
24154;BME280;12312;53.362;-1.518;2022-12-17T05:41:23;99278.06;;;-0.11;100.00
24154;BME280;12312;53.362;-1.518;2022-12-17T05:44:07;99279.03;;;-0.15;100.00
24154;BME280;12312;53.362;-1.518;2022-12-17T05:46:52;99262.22;;;-0.36;100.00
24154;BME280;12312;53.362;-1.518;2022-12-17T05:49:36;99268.47;;;-0.41;100.00
24154;BME280;12312;53.362;-1.518;2022-12-17T05:52:20;99262.44;;;-0.43;100.00
24154;BME280;12312;53.362;-1.518;2022-12-17T05:55:14;99263.34;;;-0.44;100.00
24154;BME280;12312;53.362;-1.518;2022-12-17T05:58:08;99266.75;;;-0.42;100.00
24154;BME280;12312;53.362;-1.518;2022-12-17T06:01:02;99266.50;;;-0.33;100.00
24154;BME280;12312;53.362;-1.518;2022-12-17T06:03:48;99264.88;;;-0.37;100.00
24154;BME280;12312;53.362;-1.518;2022-12-17T06:06:33;99266.56;;;-0.36;100.00
24154;BME280;12312;53.362;-1.518;2022-12-17T06:09:18;99262.41;;;0.17;100.00
24154;BME280;12312;53.362;-1.518;2022-12-17T06:12:02;99268.56;;;0.14;100.00
24154;BME280;12312;53.362;-1.518;2022-12-17T06:14:46;99267.50;;;-0.08;100.00
24154;BME280;12312;53.362;-1.518;2022-12-17T06:17:30;99268.03;;;-0.26;100.00
24154;BME280;12312;53.362;-1.518;2022-12-17T06:20:16;99257.78;;;-0.32;100.00
24154;BME280;12312;53.362;-1.518;2022-12-17T06:23:05;99260.38;;;-0.32;100.00
24154;BME280;12312;53.362;-1.518;2022-12-17T06:25:54;99261.28;;;-0.04;100.00
24154;BME280;12312;53.362;-1.518;2022-12-17T06:28:39;99253.97;;;-0.22;100.00
24154;BME280;12312;53.362;-1.518;2022-12-17T06:31:24;99266.41;;;-0.30;100.00
24154;BME280;12312;53.362;-1.518;2022-12-17T06:34:08;99271.53;;;-0.27;100.00
24154;BME280;12312;53.362;-1.518;2022-12-17T06:36:52;99278.31;;;-0.20;100.00
24154;BME280;12312;53.362;-1.518;2022-12-17T06:39:36;99278.41;;;-0.23;100.00
24154;BME280;12312;53.362;-1.518;2022-12-17T06:42:20;99284.53;;;-0.24;100.00
24154;BME280;12312;53.362;-1.518;2022-12-17T06:45:05;99281.13;;;-0.26;100.00
24154;BME280;12312;53.362;-1.518;2022-12-17T06:47:49;99280.63;;;-0.40;100.00
24154;BME280;12312;53.362;-1.518;2022-12-17T06:50:34;99281.56;;;-0.41;100.00
24154;BME280;12312;53.362;-1.518;2022-12-17T06:53:18;99292.44;;;-0.58;100.00
24154;BME280;12312;53.362;-1.518;2022-12-17T06:56:02;99297.88;;;-0.65;100.00
24154;BME280;12312;53.362;-1.518;2022-12-17T06:58:47;99296.75;;;-0.55;100.00
24154;BME280;12312;53.362;-1.518;2022-12-17T07:01:32;99299.97;;;-0.46;100.00
24154;BME280;12312;53.362;-1.518;2022-12-17T07:04:16;99301.31;;;-0.63;100.00
24154;BME280;12312;53.362;-1.518;2022-12-17T07:07:00;99296.72;;;-0.87;100.00
24154;BME280;12312;53.362;-1.518;2022-12-17T07:09:45;99289.72;;;-0.85;100.00
24154;BME280;12312;53.362;-1.518;2022-12-17T07:12:29;99283.50;;;-0.81;100.00
24154;BME280;12312;53.362;-1.518;2022-12-17T07:15:13;99290.56;;;-0.85;100.00
24154;BME280;12312;53.362;-1.518;2022-12-17T07:18:02;99280.72;;;-0.75;100.00
24154;BME280;12312;53.362;-1.518;2022-12-17T07:20:48;99271.47;;;-0.87;100.00
24154;BME280;12312;53.362;-1.518;2022-12-17T07:23:35;99261.31;;;-0.97;100.00
24154;BME280;12312;53.362;-1.518;2022-12-17T07:26:19;99258.19;;;-1.11;100.00
24154;BME280;12312;53.362;-1.518;2022-12-17T07:29:03;99252.66;;;-0.99;100.00
24154;BME280;12312;53.362;-1.518;2022-12-17T07:31:48;99259.16;;;-0.83;100.00
24154;BME280;12312;53.362;-1.518;2022-12-17T07:34:32;99258.66;;;-0.96;100.00
24154;BME280;12312;53.362;-1.518;2022-12-17T07:37:17;99260.50;;;-0.37;100.00
24154;BME280;12312;53.362;-1.518;2022-12-17T07:40:01;99254.13;;;0.03;100.00
24154;BME280;12312;53.362;-1.518;2022-12-17T07:42:45;99262.59;;;0.11;100.00
24154;BME280;12312;53.362;-1.518;2022-12-17T07:45:29;99267.66;;;0.17;100.00
24154;BME280;12312;53.362;-1.518;2022-12-17T07:48:13;99264.75;;;0.26;100.00
24154;BME280;12312;53.362;-1.518;2022-12-17T07:50:58;99269.13;;;0.25;100.00
24154;BME280;12312;53.362;-1.518;2022-12-17T07:53:42;99262.69;;;0.35;100.00
24154;BME280;12312;53.362;-1.518;2022-12-17T07:56:26;99260.22;;;0.58;100.00
24154;BME280;12312;53.362;-1.518;2022-12-17T07:59:10;99259.91;;;0.40;100.00
24154;BME280;12312;53.362;-1.518;2022-12-17T08:01:55;99264.41;;;0.36;100.00
24154;BME280;12312;53.362;-1.518;2022-12-17T08:04:39;99254.28;;;0.53;100.00
24154;BME280;12312;53.362;-1.518;2022-12-17T08:07:24;99255.38;;;0.46;100.00
24154;BME280;12312;53.362;-1.518;2022-12-17T08:10:08;99255.75;;;0.62;100.00
24154;BME280;12312;53.362;-1.518;2022-12-17T08:15:38;99260.94;;;0.89;100.00
24154;BME280;12312;53.362;-1.518;2022-12-17T08:18:22;99267.97;;;0.87;100.00
24154;BME280;12312;53.362;-1.518;2022-12-17T08:21:07;99255.59;;;0.92;100.00
24154;BME280;12312;53.362;-1.518;2022-12-17T08:23:51;99259.72;;;0.99;100.00
24154;BME280;12312;53.362;-1.518;2022-12-17T08:26:35;99252.97;;;1.18;100.00
24154;BME280;12312;53.362;-1.518;2022-12-17T08:29:19;99249.09;;;1.28;100.00
24154;BME280;12312;53.362;-1.518;2022-12-17T08:32:03;99249.56;;;1.15;100.00
24154;BME280;12312;53.362;-1.518;2022-12-17T08:34:48;99249.53;;;1.16;100.00
24154;BME280;12312;53.362;-1.518;2022-12-17T08:37:32;99263.22;;;1.24;100.00
24154;BME280;12312;53.362;-1.518;2022-12-17T08:40:16;99247.41;;;1.27;100.00
24154;BME280;12312;53.362;-1.518;2022-12-17T08:43:00;99242.78;;;1.34;100.00
24154;BME280;12312;53.362;-1.518;2022-12-17T08:45:49;99256.19;;;1.25;100.00
24154;BME280;12312;53.362;-1.518;2022-12-17T08:48:33;99253.03;;;1.40;100.00
24154;BME280;12312;53.362;-1.518;2022-12-17T08:51:18;99256.38;;;1.45;100.00
24154;BME280;12312;53.362;-1.518;2022-12-17T08:54:02;99263.19;;;1.49;100.00
24154;BME280;12312;53.362;-1.518;2022-12-17T08:56:47;99265.75;;;1.50;100.00
24154;BME280;12312;53.362;-1.518;2022-12-17T08:59:31;99264.06;;;1.49;100.00
24154;BME280;12312;53.362;-1.518;2022-12-17T09:02:14;99264.13;;;1.48;100.00
24154;BME280;12312;53.362;-1.518;2022-12-17T09:04:59;99261.66;;;1.43;100.00
24154;BME280;12312;53.362;-1.518;2022-12-17T09:07:44;99279.91;;;1.46;100.00
24154;BME280;12312;53.362;-1.518;2022-12-17T09:10:28;99286.06;;;1.45;100.00
24154;BME280;12312;53.362;-1.518;2022-12-17T09:13:12;99276.38;;;1.47;100.00
24154;BME280;12312;53.362;-1.518;2022-12-17T09:15:58;99298.03;;;1.52;100.00
24154;BME280;12312;53.362;-1.518;2022-12-17T09:18:42;99303.34;;;1.51;100.00
24154;BME280;12312;53.362;-1.518;2022-12-17T09:21:28;99307.78;;;1.49;100.00
24154;BME280;12312;53.362;-1.518;2022-12-17T09:24:14;99305.91;;;1.52;100.00
24154;BME280;12312;53.362;-1.518;2022-12-17T09:26:59;99308.75;;;1.46;100.00
24154;BME280;12312;53.362;-1.518;2022-12-17T09:29:45;99298.84;;;1.54;100.00
24154;BME280;12312;53.362;-1.518;2022-12-17T09:32:29;99288.38;;;1.54;100.00
24154;BME280;12312;53.362;-1.518;2022-12-17T09:35:14;99290.38;;;1.46;100.00
24154;BME280;12312;53.362;-1.518;2022-12-17T09:38:01;99286.75;;;1.50;100.00
24154;BME280;12312;53.362;-1.518;2022-12-17T09:40:48;99280.50;;;1.54;100.00
24154;BME280;12312;53.362;-1.518;2022-12-17T09:43:46;99284.00;;;1.55;100.00
24154;BME280;12312;53.362;-1.518;2022-12-17T09:46:44;99289.97;;;1.58;100.00
24154;BME280;12312;53.362;-1.518;2022-12-17T09:49:31;99290.19;;;1.52;100.00
24154;BME280;12312;53.362;-1.518;2022-12-17T09:52:28;99291.63;;;1.61;100.00
24154;BME280;12312;53.362;-1.518;2022-12-17T09:55:49;99284.06;;;1.76;100.00
24154;BME280;12312;53.362;-1.518;2022-12-17T09:58:37;99301.41;;;1.80;100.00
24154;BME280;12312;53.362;-1.518;2022-12-17T10:01:24;99297.66;;;1.88;100.00
24154;BME280;12312;53.362;-1.518;2022-12-17T10:04:13;99292.41;;;1.88;100.00
24154;BME280;12312;53.362;-1.518;2022-12-17T10:07:00;99291.41;;;1.90;100.00
24154;BME280;12312;53.362;-1.518;2022-12-17T10:09:50;99302.25;;;1.81;100.00
24154;BME280;12312;53.362;-1.518;2022-12-17T10:12:34;99297.75;;;1.84;100.00
24154;BME280;12312;53.362;-1.518;2022-12-17T10:15:19;99303.97;;;1.82;100.00
24154;BME280;12312;53.362;-1.518;2022-12-17T10:18:09;99309.84;;;1.88;100.00
24154;BME280;12312;53.362;-1.518;2022-12-17T10:22:29;99300.97;;;1.93;100.00
24154;BME280;12312;53.362;-1.518;2022-12-17T10:25:16;99309.72;;;1.92;100.00
24154;BME280;12312;53.362;-1.518;2022-12-17T10:28:05;99308.84;;;1.93;100.00
24154;BME280;12312;53.362;-1.518;2022-12-17T10:30:49;99310.31;;;2.00;100.00
24154;BME280;12312;53.362;-1.518;2022-12-17T10:33:38;99314.63;;;2.01;100.00
24154;BME280;12312;53.362;-1.518;2022-12-17T10:36:24;99317.38;;;1.98;100.00
24154;BME280;12312;53.362;-1.518;2022-12-17T10:39:24;99307.09;;;1.92;100.00
24154;BME280;12312;53.362;-1.518;2022-12-17T10:42:30;99307.56;;;2.03;100.00
24154;BME280;12312;53.362;-1.518;2022-12-17T10:45:34;99314.53;;;2.04;100.00
24154;BME280;12312;53.362;-1.518;2022-12-17T10:48:28;99317.84;;;2.09;100.00
24154;BME280;12312;53.362;-1.518;2022-12-17T10:54:28;99312.81;;;2.03;100.00
24154;BME280;12312;53.362;-1.518;2022-12-17T10:57:33;99330.19;;;2.07;100.00
24154;BME280;12312;53.362;-1.518;2022-12-17T11:00:22;99310.91;;;2.08;100.00
24154;BME280;12312;53.362;-1.518;2022-12-17T11:03:32;99302.97;;;2.09;100.00
24154;BME280;12312;53.362;-1.518;2022-12-17T11:06:34;99325.44;;;2.16;100.00
24154;BME280;12312;53.362;-1.518;2022-12-17T11:12:26;99330.91;;;2.10;100.00
24154;BME280;12312;53.362;-1.518;2022-12-17T11:15:18;99319.34;;;2.16;100.00
24154;BME280;12312;53.362;-1.518;2022-12-17T11:18:05;99341.34;;;2.12;100.00
24154;BME280;12312;53.362;-1.518;2022-12-17T11:24:23;99343.97;;;2.12;100.00
24154;BME280;12312;53.362;-1.518;2022-12-17T11:27:11;99349.22;;;2.12;100.00
24154;BME280;12312;53.362;-1.518;2022-12-17T11:29:59;99347.41;;;2.14;100.00
24154;BME280;12312;53.362;-1.518;2022-12-17T11:32:53;99343.19;;;2.10;100.00
24154;BME280;12312;53.362;-1.518;2022-12-17T11:38:37;99334.41;;;2.11;100.00
24154;BME280;12312;53.362;-1.518;2022-12-17T11:41:58;99329.84;;;2.16;100.00
24154;BME280;12312;53.362;-1.518;2022-12-17T11:47:46;99314.09;;;2.16;100.00
24154;BME280;12312;53.362;-1.518;2022-12-17T11:50:46;99324.78;;;2.11;100.00
24154;BME280;12312;53.362;-1.518;2022-12-17T12:00:21;99303.38;;;2.22;100.00
24154;BME280;12312;53.362;-1.518;2022-12-17T12:06:16;99311.97;;;2.25;100.00
24154;BME280;12312;53.362;-1.518;2022-12-17T12:18:09;99298.94;;;2.22;100.00
24154;BME280;12312;53.362;-1.518;2022-12-17T12:21:08;99292.75;;;2.25;100.00
24154;BME280;12312;53.362;-1.518;2022-12-17T12:30:09;99306.88;;;2.21;100.00
24154;BME280;12312;53.362;-1.518;2022-12-17T12:36:09;99309.22;;;2.28;100.00
24154;BME280;12312;53.362;-1.518;2022-12-17T12:38:55;99299.66;;;2.27;100.00
24154;BME280;12312;53.362;-1.518;2022-12-17T12:44:48;99297.72;;;2.32;100.00
24154;BME280;12312;53.362;-1.518;2022-12-17T12:48:00;99327.59;;;2.28;100.00
24154;BME280;12312;53.362;-1.518;2022-12-17T12:50:55;99332.31;;;2.20;100.00
24154;BME280;12312;53.362;-1.518;2022-12-17T12:53:42;99336.91;;;2.14;100.00
24154;BME280;12312;53.362;-1.518;2022-12-17T12:56:34;99338.91;;;2.07;100.00
24154;BME280;12312;53.362;-1.518;2022-12-17T12:59:39;99335.63;;;2.01;100.00
24154;BME280;12312;53.362;-1.518;2022-12-17T13:02:32;99353.94;;;2.02;100.00
24154;BME280;12312;53.362;-1.518;2022-12-17T13:05:22;99351.66;;;1.93;100.00
24154;BME280;12312;53.362;-1.518;2022-12-17T13:08:22;99356.44;;;2.07;100.00
24154;BME280;12312;53.362;-1.518;2022-12-17T13:10:48;99348.50;;;2.08;100.00
24154;BME280;12312;53.362;-1.518;2022-12-17T13:15:47;99356.31;;;2.10;100.00
24154;BME280;12312;53.362;-1.518;2022-12-17T13:18:32;99346.66;;;2.10;100.00
24154;BME280;12312;53.362;-1.518;2022-12-17T13:23:34;99354.25;;;2.18;100.00
24154;BME280;12312;53.362;-1.518;2022-12-17T13:29:09;99336.91;;;2.14;100.00
24154;BME280;12312;53.362;-1.518;2022-12-17T13:31:50;99342.28;;;2.11;100.00
24154;BME280;12312;53.362;-1.518;2022-12-17T13:37:23;99342.03;;;2.17;100.00
24154;BME280;12312;53.362;-1.518;2022-12-17T13:42:45;99337.13;;;2.08;100.00
24154;BME280;12312;53.362;-1.518;2022-12-17T13:45:17;99337.25;;;2.05;100.00
24154;BME280;12312;53.362;-1.518;2022-12-17T13:47:52;99341.63;;;2.04;100.00
24154;BME280;12312;53.362;-1.518;2022-12-17T13:50:26;99347.41;;;2.14;100.00
24154;BME280;12312;53.362;-1.518;2022-12-17T13:52:52;99341.34;;;2.12;100.00
24154;BME280;12312;53.362;-1.518;2022-12-17T13:55:23;99349.22;;;2.12;100.00
24154;BME280;12312;53.362;-1.518;2022-12-17T13:57:52;99354.25;;;2.18;100.00
24154;BME280;12312;53.362;-1.518;2022-12-17T14:00:23;99352.44;;;2.20;100.00
24154;BME280;12312;53.362;-1.518;2022-12-17T14:02:50;99349.69;;;2.23;100.00
24154;BME280;12312;53.362;-1.518;2022-12-17T14:05:29;99331.31;;;2.23;100.00
24154;BME280;12312;53.362;-1.518;2022-12-17T14:07:57;99347.28;;;2.17;100.00
24154;BME280;12312;53.362;-1.518;2022-12-17T14:10:24;99354.53;;;2.10;100.00
24154;BME280;12312;53.362;-1.518;2022-12-17T14:12:50;99355.41;;;2.11;100.00
24154;BME280;12312;53.362;-1.518;2022-12-17T14:15:23;99351.72;;;2.15;100.00
24154;BME280;12312;53.362;-1.518;2022-12-17T14:17:50;99344.03;;;2.10;100.00
24154;BME280;12312;53.362;-1.518;2022-12-17T14:22:59;99359.59;;;2.15;100.00
24154;BME280;12312;53.362;-1.518;2022-12-17T14:25:42;99345.44;;;2.20;100.00
24154;BME280;12312;53.362;-1.518;2022-12-17T14:28:33;99351.28;;;2.27;100.00
24154;BME280;12312;53.362;-1.518;2022-12-17T14:33:35;99352.22;;;2.26;100.00
24154;BME280;12312;53.362;-1.518;2022-12-17T14:36:06;99357.41;;;2.27;100.00
24154;BME280;12312;53.362;-1.518;2022-12-17T14:38:35;99362.59;;;2.29;100.00
24154;BME280;12312;53.362;-1.518;2022-12-17T14:41:10;99367.84;;;2.29;100.00
24154;BME280;12312;53.362;-1.518;2022-12-17T14:44:00;99365.38;;;2.24;100.00
24154;BME280;12312;53.362;-1.518;2022-12-17T14:46:28;99370.53;;;2.27;100.00
24154;BME280;12312;53.362;-1.518;2022-12-17T14:49:01;99376.66;;;2.28;100.00
24154;BME280;12312;53.362;-1.518;2022-12-17T14:51:36;99376.66;;;2.28;100.00
24154;BME280;12312;53.362;-1.518;2022-12-17T14:56:32;99376.53;;;2.31;100.00
24154;BME280;12312;53.362;-1.518;2022-12-17T14:58:57;99376.31;;;2.37;100.00
24154;BME280;12312;53.362;-1.518;2022-12-17T15:01:24;99371.06;;;2.37;100.00
24154;BME280;12312;53.362;-1.518;2022-12-17T15:03:49;99367.66;;;2.33;100.00
24154;BME280;12312;53.362;-1.518;2022-12-17T15:06:19;99369.44;;;2.33;100.00
24154;BME280;12312;53.362;-1.518;2022-12-17T15:08:46;99371.41;;;2.28;100.00
24154;BME280;12312;53.362;-1.518;2022-12-17T15:11:14;99385.53;;;2.24;100.00
24154;BME280;12312;53.362;-1.518;2022-12-17T15:13:40;99391.81;;;2.20;100.00
24154;BME280;12312;53.362;-1.518;2022-12-17T15:16:07;99387.31;;;2.23;100.00
24154;BME280;12312;53.362;-1.518;2022-12-17T15:18:33;99387.69;;;2.36;100.00
24154;BME280;12312;53.362;-1.518;2022-12-17T15:21:00;99384.63;;;2.25;100.00
24154;BME280;12312;53.362;-1.518;2022-12-17T15:23:26;99389.06;;;2.23;100.00
24154;BME280;12312;53.362;-1.518;2022-12-17T15:25:52;99387.38;;;2.22;100.00
24154;BME280;12312;53.362;-1.518;2022-12-17T15:28:19;99385.63;;;2.21;100.00
24154;BME280;12312;53.362;-1.518;2022-12-17T15:30:46;99387.47;;;2.19;100.00
24154;BME280;12312;53.362;-1.518;2022-12-17T15:33:13;99387.44;;;2.20;100.00
24154;BME280;12312;53.362;-1.518;2022-12-17T15:35:41;99389.19;;;2.20;100.00